Time;durP1;ratioP1;P1;durP2;ratioP2;P2;SDS_P1;SDS_P2;PMS_P1;PMS_P2;Temp;Humidity;BMP_temperature;BMP_pressure;BME280_temperature;BME280_humidity;BME280_pressure;Samples;Min_cycle;Max_cycle;Signal;HPM_P1;HPM_P2
2022/04/04 00:00:52;;;;;;;19.23;11.52;;;1.20;99.90;;;;;;5053462;28;20025;-93
2022/04/04 00:03:17;;;;;;;17.73;11.27;;;1.20;99.90;;;;;;5053361;28;20031;-93
2022/04/04 00:05:43;;;;;;;16.55;11.15;;;1.20;99.90;;;;;;5054555;28;20029;-94
2022/04/04 00:08:09;;;;;;;18.38;10.75;;;1.20;99.90;;;;;;5054301;28;20029;-93
2022/04/04 00:10:35;;;;;;;18.73;11.77;;;1.20;99.90;;;;;;5054762;28;20094;-93
2022/04/04 00:13:01;;;;;;;15.20;11.05;;;1.20;99.90;;;;;;5053156;28;20479;-94
2022/04/04 00:15:27;;;;;;;19.58;11.68;;;1.20;99.90;;;;;;5053345;28;20029;-95
2022/04/04 00:17:55;;;;;;;17.15;11.13;;;1.30;99.90;;;;;;5052865;28;20045;-95
2022/04/04 00:20:21;;;;;;;17.65;11.52;;;1.20;99.90;;;;;;5053228;28;20498;-95
2022/04/04 00:22:46;;;;;;;17.65;11.63;;;1.20;99.90;;;;;;5053147;28;20048;-95
2022/04/04 00:25:12;;;;;;;16.92;11.45;;;1.20;99.90;;;;;;5053335;28;20025;-95
2022/04/04 00:27:37;;;;;;;18.83;11.77;;;1.20;99.90;;;;;;5053392;28;20090;-95
2022/04/04 00:30:04;;;;;;;15.07;10.88;;;1.20;99.90;;;;;;5053118;28;20029;-95
2022/04/04 00:32:30;;;;;;;18.50;12.05;;;1.20;99.90;;;;;;5052811;28;20158;-94
2022/04/04 00:34:56;;;;;;;17.92;11.48;;;1.10;99.90;;;;;;5053595;28;20056;-95
2022/04/04 00:37:22;;;;;;;17.40;11.68;;;1.20;99.90;;;;;;5052897;28;20464;-95
2022/04/04 00:39:47;;;;;;;21.83;11.65;;;1.20;99.90;;;;;;5054228;28;20422;-95
2022/04/04 00:42:16;;;;;;;16.33;11.75;;;1.10;99.90;;;;;;5056797;28;20120;-95
2022/04/04 00:44:43;;;;;;;17.13;11.05;;;1.10;99.90;;;;;;5057384;28;20021;-95
2022/04/04 00:47:09;;;;;;;17.48;10.68;;;1.10;99.90;;;;;;5056882;28;20108;-94
2022/04/04 00:49:34;;;;;;;18.48;10.32;;;1.10;99.90;;;;;;5056991;28;20533;-94
2022/04/04 00:52:00;;;;;;;17.73;10.40;;;1.10;99.90;;;;;;5056812;28;20024;-96
2022/04/04 00:54:26;;;;;;;17.25;10.65;;;1.10;99.90;;;;;;5056806;28;20097;-96
2022/04/04 00:56:53;;;;;;;16.30;10.15;;;1.00;99.90;;;;;;5056571;28;20063;-95
2022/04/04 00:59:22;;;;;;;15.82;10.20;;;1.00;99.90;;;;;;5056480;28;20029;-95
2022/04/04 01:01:49;;;;;;;16.73;10.48;;;1.00;99.90;;;;;;5056524;28;20028;-95
2022/04/04 01:04:16;;;;;;;14.80;9.95;;;1.00;99.90;;;;;;5057291;28;20021;-95
2022/04/04 01:06:43;;;;;;;16.23;9.98;;;0.90;99.90;;;;;;5056464;28;20023;-95
2022/04/04 01:09:14;;;;;;;17.58;10.15;;;0.90;99.90;;;;;;5056457;28;20033;-96
2022/04/04 01:12:07;;;;;;;15.52;9.98;;;1.00;99.90;;;;;;5056451;28;20061;-96
2022/04/04 01:14:35;;;;;;;15.90;10.45;;;0.90;99.90;;;;;;5056507;28;20457;-96
2022/04/04 01:17:01;;;;;;;17.58;10.88;;;0.80;99.90;;;;;;5056139;28;20387;-96
2022/04/04 01:19:26;;;;;;;16.83;10.48;;;0.80;99.90;;;;;;5056108;28;20047;-96
2022/04/04 01:21:53;;;;;;;16.55;10.65;;;0.80;99.90;;;;;;5056982;28;20025;-96
2022/04/04 01:24:20;;;;;;;18.55;10.88;;;0.90;99.90;;;;;;5056162;28;20025;-96
2022/04/04 01:26:49;;;;;;;17.85;10.75;;;0.90;99.90;;;;;;5056048;28;20107;-96
2022/04/04 01:29:15;;;;;;;19.17;11.05;;;0.80;99.90;;;;;;5056852;28;20052;-96
2022/04/04 01:31:41;;;;;;;18.80;11.70;;;0.80;99.90;;;;;;5056679;28;20053;-96
2022/04/04 01:34:07;;;;;;;22.02;12.60;;;0.80;99.90;;;;;;5056488;28;20033;-96
2022/04/04 01:36:33;;;;;;;18.48;10.93;;;0.80;99.90;;;;;;5055903;28;20032;-96
2022/04/04 01:38:59;;;;;;;18.73;11.23;;;0.70;99.90;;;;;;5056265;28;20071;-96
2022/04/04 01:41:25;;;;;;;18.23;11.82;;;0.70;99.90;;;;;;5056382;28;20017;-96
2022/04/04 01:43:52;;;;;;;19.02;11.52;;;0.70;99.90;;;;;;5055882;28;20021;-96
2022/04/04 01:46:29;;;;;;;19.80;12.43;;;0.60;99.90;;;;;;5055714;28;20071;-96
2022/04/04 01:48:58;;;;;;;19.55;12.63;;;0.60;99.90;;;;;;5055670;28;20033;-96
2022/04/04 01:51:25;;;;;;;19.08;12.50;;;0.60;99.90;;;;;;5055039;28;20029;-96
2022/04/04 01:53:50;;;;;;;18.98;11.45;;;0.60;99.90;;;;;;5055552;28;20036;-96
2022/04/04 01:56:17;;;;;;;18.27;11.98;;;0.60;99.90;;;;;;5056114;28;20025;-95
2022/04/04 01:58:42;;;;;;;19.23;11.25;;;0.70;99.90;;;;;;5055719;28;20028;-96
2022/04/04 02:01:17;;;;;;;16.75;11.23;;;0.70;99.90;;;;;;5056457;28;20043;-96
2022/04/04 02:03:46;;;;;;;17.83;11.43;;;0.60;99.90;;;;;;5055534;28;20034;-96
2022/04/04 02:06:13;;;;;;;19.02;10.63;;;0.50;99.90;;;;;;5055553;28;20360;-95
2022/04/04 02:08:41;;;;;;;15.77;10.70;;;0.60;99.90;;;;;;5055241;28;20422;-96
2022/04/04 02:11:07;;;;;;;14.80;10.07;;;0.60;99.90;;;;;;5055444;28;20025;-95
2022/04/04 02:13:33;;;;;;;15.05;10.13;;;0.60;99.90;;;;;;5055657;28;20032;-95
2022/04/04 02:16:01;;;;;;;14.88;9.75;;;0.60;99.90;;;;;;5055067;28;20468;-96
2022/04/04 02:18:27;;;;;;;14.82;10.05;;;0.60;99.90;;;;;;5055430;28;20075;-96
2022/04/04 02:20:53;;;;;;;15.45;10.20;;;0.60;99.90;;;;;;5055129;28;20468;-96
2022/04/04 02:23:20;;;;;;;18.40;10.45;;;0.50;99.90;;;;;;5055067;28;20027;-95
2022/04/04 02:25:46;;;;;;;18.63;10.25;;;0.50;99.90;;;;;;5054933;28;20021;-95
2022/04/04 02:28:13;;;;;;;15.98;10.38;;;0.50;99.90;;;;;;5054974;28;20025;-96
2022/04/04 02:30:42;;;;;;;14.90;9.82;;;0.50;99.90;;;;;;5055080;28;20025;-96
2022/04/04 02:33:09;;;;;;;13.15;9.55;;;0.50;99.90;;;;;;5054887;28;20025;-94
2022/04/04 02:35:35;;;;;;;15.02;9.20;;;0.40;99.90;;;;;;5054706;28;20518;-95
2022/04/04 02:38:02;;;;;;;12.93;8.20;;;0.40;99.90;;;;;;5054667;28;20029;-95
2022/04/04 02:40:28;;;;;;;15.05;9.57;;;0.40;99.90;;;;;;5055003;28;20067;-95
2022/04/04 02:42:54;;;;;;;13.52;8.77;;;0.40;99.90;;;;;;5055033;28;20541;-95
2022/04/04 02:45:20;;;;;;;13.40;9.10;;;0.40;99.90;;;;;;5054658;28;20021;-95
2022/04/04 02:47:46;;;;;;;13.80;9.05;;;0.30;99.90;;;;;;5054617;28;20372;-95
2022/04/04 02:50:13;;;;;;;13.38;8.75;;;0.30;99.90;;;;;;5054503;28;20029;-95
2022/04/04 02:52:38;;;;;;;11.38;7.55;;;0.30;99.90;;;;;;5054654;28;20047;-95
2022/04/04 02:57:51;;;;;;;12.02;8.65;;;0.40;99.90;;;;;;5055969;28;20087;-95
2022/04/04 03:00:20;;;;;;;12.60;8.25;;;0.30;99.90;;;;;;5054373;28;20063;-94
2022/04/04 03:02:46;;;;;;;14.25;8.70;;;0.20;99.90;;;;;;5053807;28;20025;-95
2022/04/04 03:05:12;;;;;;;11.45;8.38;;;0.20;99.90;;;;;;5054378;28;20021;-95
2022/04/04 03:07:39;;;;;;;14.98;8.77;;;0.10;99.90;;;;;;5054214;28;20032;-95
2022/04/04 03:10:06;;;;;;;13.32;8.75;;;0.20;99.90;;;;;;5054158;28;20078;-94
2022/04/04 03:12:32;;;;;;;13.25;9.27;;;0.20;99.90;;;;;;5055002;28;20033;-96
2022/04/04 03:14:58;;;;;;;12.88;9.07;;;0.20;99.90;;;;;;5054081;28;20024;-94
2022/04/04 03:17:25;;;;;;;12.15;8.43;;;0.20;99.90;;;;;;5053855;28;20124;-94
2022/04/04 03:19:51;;;;;;;13.63;8.95;;;0.20;99.90;;;;;;5053855;28;20021;-95
2022/04/04 03:22:17;;;;;;;15.48;8.65;;;0.10;99.90;;;;;;5053941;28;20020;-94
2022/04/04 03:24:44;;;;;;;16.15;9.82;;;0.10;99.90;;;;;;5054007;28;20074;-94
2022/04/04 03:27:13;;;;;;;14.52;9.10;;;0.10;99.90;;;;;;5054081;28;20387;-94
2022/04/04 03:29:40;;;;;;;14.80;9.00;;;0.10;99.90;;;;;;5053903;28;20124;-95
2022/04/04 03:32:06;;;;;;;14.52;8.88;;;0.10;99.90;;;;;;5053916;28;20033;-94
2022/04/04 03:34:32;;;;;;;17.73;8.85;;;0.10;99.90;;;;;;5053772;28;20121;-94
2022/04/04 03:36:58;;;;;;;17.50;9.27;;;0.10;99.90;;;;;;5053739;28;20120;-94
2022/04/04 03:39:24;;;;;;;14.48;9.20;;;0.00;99.90;;;;;;5053820;28;20063;-94
2022/04/04 03:41:49;;;;;;;13.95;9.20;;;0.00;99.90;;;;;;5053649;28;20059;-94
2022/04/04 03:44:15;;;;;;;16.67;9.38;;;0.10;99.90;;;;;;5053711;28;20383;-95
2022/04/04 03:46:41;;;;;;;14.38;9.27;;;0.10;99.90;;;;;;5053690;28;20112;-96
2022/04/04 03:49:07;;;;;;;14.23;8.70;;;0.10;99.90;;;;;;5053787;28;20029;-94
2022/04/04 03:51:33;;;;;;;12.40;8.75;;;0.20;99.90;;;;;;5053409;28;20033;-94
2022/04/04 03:53:58;;;;;;;14.70;8.90;;;0.10;99.90;;;;;;5053434;28;20111;-95
2022/04/04 03:56:24;;;;;;;13.40;8.25;;;0.20;99.90;;;;;;5053394;28;20028;-94
2022/04/04 03:58:52;;;;;;;10.98;7.60;;;0.20;99.90;;;;;;5053769;28;20110;-94
2022/04/04 04:01:17;;;;;;;13.75;8.95;;;0.20;99.90;;;;;;5053437;28;20021;-94
2022/04/04 04:03:43;;;;;;;12.50;8.50;;;0.20;99.90;;;;;;5053322;28;20021;-94
2022/04/04 04:06:12;;;;;;;13.25;8.73;;;0.20;99.90;;;;;;5054006;28;20379;-93
2022/04/04 04:08:39;;;;;;;13.23;8.90;;;0.20;99.90;;;;;;5054307;28;20108;-94
2022/04/04 04:11:05;;;;;;;15.48;8.57;;;0.20;99.90;;;;;;5053462;28;20025;-94
2022/04/04 04:13:31;;;;;;;15.90;8.73;;;0.20;99.90;;;;;;5053037;28;20035;-94
2022/04/04 04:15:58;;;;;;;16.65;9.27;;;0.20;99.90;;;;;;5053143;28;20025;-93
2022/04/04 04:18:24;;;;;;;13.32;8.85;;;0.20;99.90;;;;;;5052977;28;20059;-94
2022/04/04 04:20:50;;;;;;;14.82;8.65;;;0.20;99.90;;;;;;5053200;28;20427;-94
2022/04/04 04:23:16;;;;;;;15.40;8.57;;;0.20;99.90;;;;;;5053129;28;20018;-94
2022/04/04 04:25:42;;;;;;;15.60;9.35;;;0.20;99.90;;;;;;5053085;28;20078;-96
2022/04/04 04:28:09;;;;;;;14.88;8.93;;;0.10;99.90;;;;;;5052985;28;20472;-93
2022/04/04 04:30:36;;;;;;;14.02;9.05;;;0.20;99.90;;;;;;5053213;28;20601;-94
2022/04/04 19:56:20;;;;;;;18.17;10.52;;;2.80;77.70;;;;;;5108176;27;20365;-92
2022/04/04 19:58:46;;;;;;;22.23;11.82;;;2.60;78.90;;;;;;5090873;28;20059;-94
2022/04/04 20:01:12;;;;;;;19.00;11.25;;;2.60;80.10;;;;;;5091011;28;20115;-93
2022/04/04 20:03:37;;;;;;;19.25;10.02;;;2.60;81.40;;;;;;5090890;28;20046;-92
2022/04/04 20:06:03;;;;;;;16.27;8.98;;;2.60;82.50;;;;;;5090828;28;20111;-92
2022/04/04 20:08:29;;;;;;;14.98;8.50;;;2.70;83.10;;;;;;5090705;28;20467;-94
2022/04/04 20:10:56;;;;;;;10.77;7.40;;;2.70;83.90;;;;;;5090575;28;20029;-93
2022/04/04 20:13:22;;;;;;;11.05;6.85;;;2.80;84.50;;;;;;5090439;28;20032;-92
2022/04/04 20:15:48;;;;;;;13.90;7.00;;;2.80;84.70;;;;;;5090386;28;20031;-92
2022/04/04 20:18:14;;;;;;;11.63;7.10;;;2.90;85.00;;;;;;5091501;28;20025;-92
2022/04/04 20:20:41;;;;;;;30.73;18.40;;;3.00;85.20;;;;;;5098776;28;20028;-95
2022/04/04 20:23:07;;;;;;;15.38;9.52;;;3.00;85.20;;;;;;5090228;28;20055;-92
2022/04/04 20:25:33;;;;;;;12.40;7.13;;;3.10;85.20;;;;;;5090505;28;20120;-93
2022/04/04 20:27:59;;;;;;;12.48;7.28;;;3.10;85.10;;;;;;5090408;28;20467;-92
2022/04/04 20:30:25;;;;;;;11.70;7.28;;;3.20;84.80;;;;;;5088792;28;20020;-92
2022/04/04 20:32:50;;;;;;;13.23;7.88;;;3.20;85.20;;;;;;5089605;28;20527;-93
2022/04/04 20:35:16;;;;;;;12.40;7.53;;;3.20;84.90;;;;;;5088632;28;20042;-93
2022/04/04 20:37:43;;;;;;;16.73;8.48;;;3.20;84.80;;;;;;5088603;28;20020;-92
2022/04/04 20:40:12;;;;;;;17.35;9.70;;;3.30;84.60;;;;;;5088485;28;20035;-94
2022/04/04 20:42:38;;;;;;;14.07;9.10;;;3.20;85.20;;;;;;5089060;28;20386;-91
2022/04/04 20:45:06;;;;;;;17.15;9.10;;;3.30;84.70;;;;;;5088885;28;20115;-93
2022/04/04 20:47:31;;;;;;;13.32;7.72;;;3.30;85.30;;;;;;5090035;28;20028;-92
2022/04/04 20:49:57;;;;;;;19.27;10.23;;;3.30;84.90;;;;;;5089293;28;20080;-93
2022/04/04 20:52:23;;;;;;;14.52;9.60;;;3.30;84.10;;;;;;5088815;28;20024;-93
2022/04/04 20:54:49;;;;;;;14.98;9.10;;;3.30;84.40;;;;;;5088252;28;20044;-93
2022/04/04 20:57:15;;;;;;;16.65;9.55;;;3.30;85.10;;;;;;5088660;28;20021;-93
2022/04/04 20:59:41;;;;;;;17.88;9.93;;;3.30;85.10;;;;;;5088202;28;20040;-93
2022/04/04 21:02:07;;;;;;;17.20;10.32;;;3.30;85.10;;;;;;5088476;28;20024;-93
2022/04/04 21:04:33;;;;;;;16.67;10.43;;;3.30;85.00;;;;;;5088599;28;20024;-93
2022/04/04 21:06:59;;;;;;;18.15;10.25;;;3.30;85.50;;;;;;5078835;28;20381;-93
2022/04/04 21:09:24;;;;;;;17.27;10.80;;;3.20;84.80;;;;;;5074833;28;20035;-93
2022/04/04 21:11:50;;;;;;;19.25;11.02;;;3.20;84.80;;;;;;5074900;28;20025;-93
2022/04/04 21:14:17;;;;;;;17.45;10.65;;;3.20;85.00;;;;;;5074971;28;20024;-92
2022/04/04 21:16:43;;;;;;;22.02;10.55;;;3.10;85.30;;;;;;5074762;28;20016;-93
2022/04/04 21:19:08;;;;;;;16.88;10.55;;;3.10;85.20;;;;;;5075025;28;20031;-93
2022/04/04 21:21:35;;;;;;;15.45;10.10;;;3.00;85.20;;;;;;5076080;28;20073;-93
2022/04/04 21:24:01;;;;;;;16.48;10.30;;;3.00;85.40;;;;;;5074765;28;20379;-93
2022/04/04 21:26:28;;;;;;;15.07;10.02;;;2.90;85.40;;;;;;5076040;28;20044;-93
2022/04/04 21:28:54;;;;;;;17.08;10.50;;;2.80;85.50;;;;;;5075009;28;20025;-93
2022/04/04 21:31:22;;;;;;;18.40;11.18;;;2.70;85.70;;;;;;5074840;28;20600;-94
2022/04/04 21:33:49;;;;;;;18.08;10.02;;;2.60;85.90;;;;;;5075023;28;20067;-93
2022/04/04 21:36:15;;;;;;;17.08;10.43;;;2.40;86.10;;;;;;5076165;28;20021;-94
2022/04/04 21:38:41;;;;;;;18.65;11.35;;;2.30;86.50;;;;;;5075114;28;20032;-93
2022/04/04 21:41:08;;;;;;;19.25;10.82;;;2.20;86.50;;;;;;5074952;28;20112;-93
2022/04/04 21:43:34;;;;;;;18.58;10.48;;;2.10;87.00;;;;;;5074765;28;20027;-93
2022/04/04 21:46:00;;;;;;;17.63;9.85;;;2.00;87.60;;;;;;5074778;28;20036;-94
2022/04/04 21:48:26;;;;;;;18.23;11.30;;;1.90;88.10;;;;;;5074617;28;20041;-94
2022/04/04 21:50:51;;;;;;;16.30;10.30;;;1.80;88.40;;;;;;5074774;28;20029;-93
2022/04/04 21:53:17;;;;;;;17.85;10.48;;;1.70;88.80;;;;;;5074599;28;20032;-94
2022/04/04 21:55:43;;;;;;;18.65;11.73;;;1.60;89.40;;;;;;5074237;28;20047;-94
2022/04/04 21:58:09;;;;;;;17.30;11.13;;;1.50;89.80;;;;;;5074422;28;20020;-93
2022/04/04 22:00:36;;;;;;;18.00;10.90;;;1.40;90.40;;;;;;5075100;28;20021;-93
2022/04/04 22:03:03;;;;;;;17.90;11.02;;;1.30;90.20;;;;;;5074697;28;20031;-93
2022/04/04 22:05:29;;;;;;;20.63;11.45;;;1.30;90.60;;;;;;5074779;28;20495;-94
2022/04/04 22:07:56;;;;;;;23.38;13.07;;;1.20;90.80;;;;;;5074449;28;20060;-94
2022/04/04 22:10:23;;;;;;;19.40;12.02;;;1.20;90.90;;;;;;5074387;28;20025;-94
2022/04/04 22:12:50;;;;;;;22.10;11.88;;;1.10;91.00;;;;;;5074317;28;20286;-94
2022/04/04 22:15:16;;;;;;;20.88;12.43;;;1.00;91.10;;;;;;5075415;28;20013;-94
2022/04/04 22:17:43;;;;;;;21.90;12.65;;;0.90;91.40;;;;;;5073431;28;20086;-94
2022/04/04 22:20:11;;;;;;;23.02;12.15;;;0.90;91.60;;;;;;5074313;28;20052;-94
2022/04/04 22:22:38;;;;;;;20.67;12.25;;;0.80;91.80;;;;;;5074587;28;20107;-95
2022/04/04 22:25:05;;;;;;;19.73;12.88;;;0.70;92.00;;;;;;5074814;28;20040;-94
2022/04/04 22:27:31;;;;;;;22.48;13.65;;;0.60;92.40;;;;;;5074446;28;20028;-93
2022/04/04 22:29:57;;;;;;;21.88;12.93;;;0.70;92.60;;;;;;5074297;28;20025;-94
2022/04/04 22:32:22;;;;;;;20.05;12.00;;;0.60;92.80;;;;;;5074130;28;20031;-95
2022/04/04 22:34:48;;;;;;;26.27;14.68;;;0.60;93.00;;;;;;5073998;28;20429;-93
2022/04/04 22:37:13;;;;;;;21.92;13.65;;;0.60;93.20;;;;;;5074420;28;20391;-94
2022/04/04 22:39:39;;;;;;;24.98;15.05;;;0.50;93.30;;;;;;5074267;28;20024;-94
2022/04/04 22:42:05;;;;;;;24.25;14.25;;;0.50;93.50;;;;;;5074346;28;20074;-94
2022/04/04 22:44:30;;;;;;;32.38;16.60;;;0.40;93.60;;;;;;5074495;28;20048;-94
2022/04/04 22:46:56;;;;;;;31.75;16.30;;;0.30;93.80;;;;;;5074179;28;20078;-94
2022/04/04 22:49:23;;;;;;;30.75;15.93;;;0.30;94.10;;;;;;5074097;28;20020;-94
2022/04/04 22:51:49;;;;;;;34.10;17.88;;;0.20;94.30;;;;;;5073978;28;20025;-94
2022/04/04 22:54:14;;;;;;;31.45;16.88;;;0.20;94.50;;;;;;5073770;28;20051;-93
2022/04/04 22:56:40;;;;;;;33.95;18.20;;;0.10;94.70;;;;;;5073861;28;20025;-94
2022/04/04 22:59:06;;;;;;;26.15;16.80;;;0.10;95.20;;;;;;5074227;28;20364;-95
2022/04/04 23:01:33;;;;;;;27.33;16.23;;;0.10;95.40;;;;;;5073859;28;20031;-94
2022/04/04 23:03:59;;;;;;;31.23;16.33;;;0.10;95.60;;;;;;5074177;28;20021;-94
2022/04/04 23:06:26;;;;;;;29.40;16.13;;;0.10;95.80;;;;;;5073882;28;20048;-94
2022/04/04 23:08:52;;;;;;;27.08;15.15;;;0.10;96.30;;;;;;5074101;28;20116;-94
2022/04/04 23:11:18;;;;;;;22.52;14.70;;;0.10;96.20;;;;;;5073928;28;20115;-94
2022/04/04 23:13:44;;;;;;;25.10;14.63;;;0.10;96.30;;;;;;5073702;28;20028;-94
2022/04/04 23:16:10;;;;;;;21.50;13.05;;;0.10;96.40;;;;;;5073467;28;20035;-93
2022/04/04 23:18:37;;;;;;;26.50;13.98;;;0.10;96.60;;;;;;5073751;28;20024;-94
2022/04/04 23:21:04;;;;;;;19.60;12.10;;;0.10;96.80;;;;;;5073528;28;20017;-94
2022/04/04 23:23:30;;;;;;;21.25;12.85;;;0.00;96.90;;;;;;5073638;28;20027;-95
2022/04/04 23:25:56;;;;;;;20.48;11.85;;;0.10;97.00;;;;;;5073490;28;20028;-94
2022/04/04 23:28:21;;;;;;;19.48;12.07;;;0.10;97.20;;;;;;5073782;28;20391;-93
2022/04/04 23:30:48;;;;;;;18.92;11.65;;;0.10;97.20;;;;;;5073291;28;20386;-93
2022/04/04 23:33:13;;;;;;;18.05;11.07;;;0.10;97.30;;;;;;5073633;28;20115;-94
2022/04/04 23:35:39;;;;;;;20.17;11.95;;;0.10;97.40;;;;;;5073291;28;20435;-94
2022/04/04 23:38:04;;;;;;;16.73;10.95;;;0.10;97.50;;;;;;5073419;28;20032;-93
2022/04/04 23:40:30;;;;;;;15.57;9.82;;;0.10;97.60;;;;;;5073417;28;20016;-94
2022/04/04 23:42:56;;;;;;;16.10;10.57;;;0.20;97.80;;;;;;5073738;28;20166;-93
2022/04/04 23:45:22;;;;;;;16.42;9.90;;;0.20;97.80;;;;;;5073299;28;20083;-92
2022/04/04 23:47:48;;;;;;;16.20;10.50;;;0.20;97.80;;;;;;5073329;28;20025;-94
2022/04/04 23:50:13;;;;;;;16.60;11.45;;;0.20;97.80;;;;;;5073079;28;20505;-94
2022/04/04 23:52:39;;;;;;;15.88;10.50;;;0.30;97.90;;;;;;5073375;28;20486;-94
2022/04/04 23:55:06;;;;;;;18.98;11.63;;;0.40;98.00;;;;;;5073131;28;20049;-93
2022/04/04 23:57:31;;;;;;;19.38;11.07;;;0.40;98.00;;;;;;5073276;28;20020;-92
2022/04/04 23:59:57;;;;;;;18.17;11.63;;;0.40;98.00;;;;;;5073046;28;20032;-93
